Time;durP1;ratioP1;P1;durP2;ratioP2;P2;SDS_P1;SDS_P2;PMS_P1;PMS_P2;Temp;Humidity;BMP_temperature;BMP_pressure;BME280_temperature;BME280_humidity;BME280_pressure;Samples;Min_cycle;Max_cycle;Signal;HPM_P1;HPM_P2
2022/12/20 00:01:28;;;;;;;21.67;14.15;;;;;;;;;;4996369;28;20058;-76
2022/12/20 00:03:56;;;;;;;21.98;14.35;;;;;;;;;;5002006;28;20146;-76
2022/12/20 00:06:23;;;;;;;21.95;14.50;;;;;;;;;;4982167;28;20050;-77
2022/12/20 00:08:59;;;;;;;21.95;14.30;;;;;;;;;;5001401;28;20061;-78
2022/12/20 00:11:26;;;;;;;22.35;14.10;;;;;;;;;;4992538;28;20060;-78
2022/12/20 00:13:53;;;;;;;23.73;15.30;;;;;;;;;;4992315;28;20104;-78
2022/12/20 00:16:22;;;;;;;21.45;14.35;;;;;;;;;;4981678;28;20056;-76
2022/12/20 00:18:51;;;;;;;23.90;15.45;;;;;;;;;;4985599;28;20061;-77
2022/12/20 00:21:18;;;;;;;26.83;16.05;;;;;;;;;;4991302;28;20065;-77
2022/12/20 00:23:44;;;;;;;20.55;14.55;;;;;;;;;;4985040;28;20058;-77
2022/12/20 00:26:13;;;;;;;23.70;15.30;;;;;;;;;;5007240;28;20489;-77
2022/12/20 00:28:41;;;;;;;28.30;16.95;;;;;;;;;;4994950;28;20046;-77
2022/12/20 00:31:09;;;;;;;22.08;15.98;;;;;;;;;;5016165;28;20062;-76
2022/12/20 00:33:37;;;;;;;23.40;15.02;;;;;;;;;;5011486;28;20128;-76
2022/12/20 00:36:05;;;;;;;20.83;14.07;;;;;;;;;;5033590;28;20113;-77
2022/12/20 00:38:34;;;;;;;24.60;14.70;;;;;;;;;;5019115;28;20052;-77
2022/12/20 00:41:09;;;;;;;24.90;14.95;;;;;;;;;;5001179;28;20141;-77
2022/12/20 00:43:37;;;;;;;24.85;15.63;;;;;;;;;;5003528;28;20108;-76
2022/12/20 00:46:04;;;;;;;28.52;16.73;;;;;;;;;;4983516;28;20056;-77
2022/12/20 00:48:31;;;;;;;30.80;18.00;;;;;;;;;;4995906;28;20092;-77
2022/12/20 00:50:59;;;;;;;25.73;15.68;;;;;;;;;;4984044;28;20054;-76
2022/12/20 00:53:26;;;;;;;28.15;17.00;;;;;;;;;;4997128;28;20423;-76
2022/12/20 00:55:53;;;;;;;28.27;17.52;;;;;;;;;;4965230;28;20052;-77
2022/12/20 00:58:20;;;;;;;33.03;19.33;;;;;;;;;;4981963;28;20058;-77
2022/12/20 01:00:47;;;;;;;34.90;17.60;;;;;;;;;;4996937;28;20422;-76
2022/12/20 01:03:21;;;;;;;27.40;16.58;;;;;;;;;;4981134;28;20501;-77
2022/12/20 01:05:52;;;;;;;26.80;16.25;;;;;;;;;;4980146;28;20133;-76
2022/12/20 01:08:19;;;;;;;25.17;15.38;;;;;;;;;;4999347;28;20043;-77
2022/12/20 01:10:46;;;;;;;26.08;16.50;;;;;;;;;;4962299;28;20479;-77
2022/12/20 01:13:13;;;;;;;29.60;17.55;;;;;;;;;;4986632;28;20050;-78
2022/12/20 01:15:39;;;;;;;28.17;17.15;;;;;;;;;;4977470;28;20538;-77
2022/12/20 01:18:06;;;;;;;25.88;15.90;;;;;;;;;;4995729;28;20312;-76
2022/12/20 01:20:33;;;;;;;24.45;15.45;;;;;;;;;;4981612;28;20061;-77
2022/12/20 01:23:00;;;;;;;23.20;15.90;;;;;;;;;;5016813;28;20050;-77
2022/12/20 01:25:26;;;;;;;25.25;16.35;;;;;;;;;;4979166;28;20066;-77
2022/12/20 01:27:53;;;;;;;24.20;15.45;;;;;;;;;;4995678;28;20061;-77
2022/12/20 01:30:20;;;;;;;24.10;14.43;;;;;;;;;;4962707;28;20487;-77
2022/12/20 01:32:47;;;;;;;25.73;15.55;;;;;;;;;;4964977;28;20057;-77
2022/12/20 01:35:14;;;;;;;27.38;16.45;;;;;;;;;;4964419;28;20062;-77
2022/12/20 01:37:41;;;;;;;23.98;15.07;;;;;;;;;;5002440;28;20065;-78
2022/12/20 01:40:09;;;;;;;25.02;14.93;;;;;;;;;;4998514;28;20054;-77
2022/12/20 01:42:36;;;;;;;22.92;14.25;;;;;;;;;;4978995;28;20057;-77
2022/12/20 01:45:03;;;;;;;26.60;15.57;;;;;;;;;;5014017;28;20047;-78
2022/12/20 01:47:31;;;;;;;24.20;15.40;;;;;;;;;;4999435;28;20085;-78
2022/12/20 01:49:58;;;;;;;25.80;14.68;;;;;;;;;;4997282;28;20054;-78
2022/12/20 01:52:36;;;;;;;24.83;16.23;;;;;;;;;;4997665;28;20507;-78
2022/12/20 01:55:16;;;;;;;24.38;15.25;;;;;;;;;;5001093;28;20054;-78
2022/12/20 01:58:00;;;;;;;24.75;14.25;;;;;;;;;;4985852;28;20506;-77
2022/12/20 02:00:28;;;;;;;24.05;15.15;;;;;;;;;;4982250;28;20080;-77
2022/12/20 02:02:55;;;;;;;23.15;15.77;;;;;;;;;;4971017;28;20054;-78
2022/12/20 02:05:22;;;;;;;21.88;13.77;;;;;;;;;;4990176;28;20092;-77
2022/12/20 02:07:50;;;;;;;22.60;15.27;;;;;;;;;;4998325;28;20050;-77
2022/12/20 02:10:18;;;;;;;21.73;14.52;;;;;;;;;;5018966;28;20054;-77
2022/12/20 02:12:45;;;;;;;24.08;14.50;;;;;;;;;;4999476;28;20051;-77
2022/12/20 02:15:37;;;;;;;23.20;14.45;;;;;;;;;;4994074;28;20053;-77
2022/12/20 02:18:21;;;;;;;23.40;15.27;;;;;;;;;;5003294;28;20042;-79
2022/12/20 02:21:07;;;;;;;23.92;14.27;;;;;;;;;;4992060;28;20054;-79
2022/12/20 02:23:52;;;;;;;22.90;14.07;;;;;;;;;;5005451;28;20448;-79
2022/12/20 02:26:48;;;;;;;22.40;13.98;;;;;;;;;;5005291;28;20058;-80
2022/12/20 02:29:35;;;;;;;22.33;14.23;;;;;;;;;;5006280;28;20046;-78
2022/12/20 02:32:07;;;;;;;23.67;14.20;;;;;;;;;;4995278;28;20054;-79
2022/12/20 02:34:35;;;;;;;21.75;14.38;;;;;;;;;;4994485;28;20057;-80
2022/12/20 02:37:02;;;;;;;21.90;14.73;;;;;;;;;;4975770;28;20061;-79
2022/12/20 02:39:30;;;;;;;22.33;14.70;;;;;;;;;;4997206;28;20038;-80
2022/12/20 02:42:02;;;;;;;21.73;14.05;;;;;;;;;;4992809;28;20054;-80
2022/12/20 02:47:19;;;;;;;22.77;14.23;;;;;;;;;;5006067;28;20495;-80
2022/12/20 02:49:46;;;;;;;20.10;13.27;;;;;;;;;;4996325;28;20069;-79
2022/12/20 02:52:13;;;;;;;20.80;13.70;;;;;;;;;;4984665;28;20069;-80
2022/12/20 02:54:40;;;;;;;20.45;13.65;;;;;;;;;;5004312;28;20058;-80
2022/12/20 02:57:16;;;;;;;20.83;14.00;;;;;;;;;;4983714;28;20054;-79
2022/12/20 03:00:05;;;;;;;20.33;13.13;;;;;;;;;;4975312;28;20049;-80
2022/12/20 03:03:21;;;;;;;22.67;13.93;;;;;;;;;;4988741;28;20050;-76
2022/12/20 03:05:18;;;;;;;23.85;13.60;;;;;;;;;;5013090;28;20100;-77
2022/12/20 03:07:45;;;;;;;21.27;13.88;;;;;;;;;;4984449;28;20042;-78
2022/12/20 03:10:12;;;;;;;25.17;13.88;;;;;;;;;;4983985;28;20053;-78
2022/12/20 03:12:38;;;;;;;20.23;13.25;;;;;;;;;;4987096;28;20054;-78
2022/12/20 03:15:06;;;;;;;22.42;13.23;;;;;;;;;;5018802;28;20442;-78
2022/12/20 03:17:32;;;;;;;21.23;14.07;;;;;;;;;;4992079;28;20057;-77
2022/12/20 03:19:59;;;;;;;25.45;14.45;;;;;;;;;;4999692;28;20053;-77
2022/12/20 03:22:26;;;;;;;20.20;13.50;;;;;;;;;;4999756;28;20050;-76
2022/12/20 03:24:53;;;;;;;21.45;13.57;;;;;;;;;;5000351;28;20062;-76
2022/12/20 03:27:19;;;;;;;19.95;14.13;;;;;;;;;;5003023;28;20506;-77
2022/12/20 03:29:46;;;;;;;20.10;13.00;;;;;;;;;;5006558;28;20053;-77
2022/12/20 03:32:13;;;;;;;19.15;13.13;;;;;;;;;;4981976;28;20061;-77
2022/12/20 03:34:39;;;;;;;21.35;13.65;;;;;;;;;;4970631;28;20422;-77
2022/12/20 03:37:06;;;;;;;21.98;13.38;;;;;;;;;;5003707;28;20538;-77
2022/12/20 03:39:33;;;;;;;20.20;11.55;;;;;;;;;;5000749;28;20053;-77
2022/12/20 03:41:59;;;;;;;21.10;13.00;;;;;;;;;;4998409;28;20137;-77
2022/12/20 03:44:26;;;;;;;18.15;12.38;;;;;;;;;;4981572;28;20050;-77
2022/12/20 03:46:53;;;;;;;19.40;12.38;;;;;;;;;;4998196;28;20506;-78
2022/12/20 03:49:20;;;;;;;18.30;12.43;;;;;;;;;;4981389;28;20050;-77
2022/12/20 03:55:40;;;;;;;19.90;12.85;;;;;;;;;;5000025;28;20044;-77
2022/12/20 03:58:11;;;;;;;19.35;13.43;;;;;;;;;;5023872;28;20141;-78
2022/12/20 04:00:38;;;;;;;17.98;12.00;;;;;;;;;;4978830;28;20062;-77
2022/12/20 04:03:04;;;;;;;17.98;12.30;;;;;;;;;;4979663;28;20115;-77
2022/12/20 04:05:31;;;;;;;19.00;12.60;;;;;;;;;;4996836;28;20137;-77
2022/12/20 04:07:58;;;;;;;20.20;12.68;;;;;;;;;;4978303;28;20053;-77
2022/12/20 04:10:25;;;;;;;22.80;12.70;;;;;;;;;;4996862;28;20054;-77
2022/12/20 04:12:52;;;;;;;24.38;14.18;;;;;;;;;;5011435;28;20502;-77
2022/12/20 04:15:18;;;;;;;19.98;13.32;;;;;;;;;;4994527;28;20050;-76
2022/12/20 04:17:45;;;;;;;19.52;13.45;;;;;;;;;;5010526;28;20052;-75
2022/12/20 04:20:19;;;;;;;19.65;14.27;;;;;;;;;;4978541;28;20069;-75
2022/12/20 04:22:46;;;;;;;20.10;12.50;;;;;;;;;;4979221;28;20057;-76
2022/12/20 04:25:14;;;;;;;18.67;12.90;;;;;;;;;;4994465;28;20054;-76
2022/12/20 04:27:41;;;;;;;20.40;13.57;;;;;;;;;;4994132;28;20417;-76
2022/12/20 04:30:11;;;;;;;22.92;13.82;;;;;;;;;;4993656;28;20088;-76
2022/12/20 04:32:38;;;;;;;21.60;14.27;;;;;;;;;;4994064;28;20419;-76
2022/12/20 04:35:05;;;;;;;21.33;14.00;;;;;;;;;;4977893;28;20498;-76
2022/12/20 04:37:32;;;;;;;19.35;13.00;;;;;;;;;;4980087;28;20070;-76
2022/12/20 04:39:59;;;;;;;19.50;13.40;;;;;;;;;;5010309;28;20057;-76
2022/12/20 04:42:26;;;;;;;20.50;14.10;;;;;;;;;;4993644;28;20517;-76
2022/12/20 04:44:52;;;;;;;21.50;12.40;;;;;;;;;;4978105;28;20053;-77
2022/12/20 04:47:19;;;;;;;19.50;12.98;;;;;;;;;;5010000;28;20058;-77
2022/12/20 04:49:46;;;;;;;20.15;13.05;;;;;;;;;;4993603;28;20049;-77
2022/12/20 04:54:58;;;;;;;19.48;12.88;;;;;;;;;;5012819;28;20062;-76
2022/12/20 04:57:24;;;;;;;20.52;12.57;;;;;;;;;;4977548;28;20502;-76
2022/12/20 04:59:51;;;;;;;19.63;12.20;;;;;;;;;;5009778;28;20300;-77
2022/12/20 05:02:18;;;;;;;21.48;12.82;;;;;;;;;;4993767;28;20057;-77
2022/12/20 05:04:45;;;;;;;18.75;12.30;;;;;;;;;;4978213;28;20061;-76
2022/12/20 05:07:12;;;;;;;19.95;12.25;;;;;;;;;;4978255;28;20058;-76
2022/12/20 05:09:38;;;;;;;18.08;12.75;;;;;;;;;;5009490;28;20049;-76
2022/12/20 05:12:05;;;;;;;18.20;12.13;;;;;;;;;;4993761;28;20057;-76
2022/12/20 05:14:32;;;;;;;23.30;14.55;;;;;;;;;;4977640;28;20112;-77
2022/12/20 05:16:59;;;;;;;19.83;13.32;;;;;;;;;;4993548;28;20421;-76
2022/12/20 05:19:25;;;;;;;19.25;12.35;;;;;;;;;;4993190;28;20426;-76
2022/12/20 05:27:23;;;;;;;20.55;13.88;;;;;;;;;;5009982;28;20050;-76
2022/12/20 05:29:49;;;;;;;20.65;12.48;;;;;;;;;;5024222;28;20054;-76
2022/12/20 05:32:16;;;;;;;20.30;12.23;;;;;;;;;;5029174;28;20574;-76
2022/12/20 05:34:43;;;;;;;21.23;13.10;;;;;;;;;;4993406;28;20058;-77
2022/12/20 05:37:10;;;;;;;18.33;11.75;;;;;;;;;;5009782;28;20073;-76
2022/12/20 05:39:36;;;;;;;20.52;13.45;;;;;;;;;;5011399;28;20060;-77
2022/12/20 05:42:03;;;;;;;25.80;15.05;;;;;;;;;;4980967;28;20502;-79
2022/12/20 05:44:30;;;;;;;25.85;17.55;;;;;;;;;;4995743;28;20054;-77
2022/12/20 05:46:57;;;;;;;25.52;17.60;;;;;;;;;;4983760;28;20065;-77
2022/12/20 05:49:24;;;;;;;30.23;19.70;;;;;;;;;;4984721;28;20050;-77
2022/12/20 05:51:50;;;;;;;28.02;15.73;;;;;;;;;;4970079;28;20058;-77
2022/12/20 05:54:17;;;;;;;21.45;13.48;;;;;;;;;;5004807;28;20054;-77
2022/12/20 05:56:44;;;;;;;23.67;12.73;;;;;;;;;;5000460;28;20636;-77
2022/12/20 05:59:11;;;;;;;17.55;11.80;;;;;;;;;;4985448;28;20054;-77
2022/12/20 06:01:38;;;;;;;24.38;15.18;;;;;;;;;;5000341;28;20406;-77
2022/12/20 06:04:05;;;;;;;21.60;14.15;;;;;;;;;;4968289;28;20042;-77
2022/12/20 06:06:32;;;;;;;17.90;11.48;;;;;;;;;;4984149;28;20108;-77
2022/12/20 06:08:59;;;;;;;19.88;12.07;;;;;;;;;;4983333;28;20046;-77
2022/12/20 06:11:26;;;;;;;16.23;10.82;;;;;;;;;;5012189;28;20050;-77
2022/12/20 06:13:56;;;;;;;19.33;11.52;;;;;;;;;;4992646;28;20112;-78
2022/12/20 06:16:24;;;;;;;23.83;14.68;;;;;;;;;;4967873;28;20050;-78
2022/12/20 06:18:51;;;;;;;23.30;14.50;;;;;;;;;;5000562;28;20113;-77
2022/12/20 06:21:17;;;;;;;22.27;12.73;;;;;;;;;;4983464;28;20056;-77
2022/12/20 06:23:44;;;;;;;17.33;11.95;;;;;;;;;;4998481;28;20061;-76
2022/12/20 06:26:11;;;;;;;17.42;11.23;;;;;;;;;;4977272;28;20131;-77
2022/12/20 06:36:06;;;;;;;17.20;10.77;;;;;;;;;;5004172;28;20085;-78
2022/12/20 06:38:33;;;;;;;16.45;10.05;;;;;;;;;;4993957;28;20054;-77
2022/12/20 06:41:00;;;;;;;14.35;9.70;;;;;;;;;;5010469;28;20066;-76
2022/12/20 06:43:27;;;;;;;14.35;9.82;;;;;;;;;;5013766;28;20084;-78
2022/12/20 06:45:53;;;;;;;13.20;9.73;;;;;;;;;;4999049;28;20502;-79
2022/12/20 06:48:20;;;;;;;14.73;10.05;;;;;;;;;;5016510;28;20057;-78
2022/12/20 06:50:48;;;;;;;14.00;9.35;;;;;;;;;;5017634;28;20057;-82
2022/12/20 06:53:21;;;;;;;13.45;9.13;;;;;;;;;;5002652;28;20058;-80
2022/12/20 06:55:51;;;;;;;12.15;8.75;;;;;;;;;;5000975;28;20413;-81
2022/12/20 06:58:18;;;;;;;13.35;8.85;;;;;;;;;;4985076;28;20058;-82
2022/12/20 07:00:46;;;;;;;18.08;8.68;;;;;;;;;;4985556;28;20089;-82
2022/12/20 07:03:12;;;;;;;13.18;8.88;;;;;;;;;;4984765;28;20433;-78
2022/12/20 07:05:40;;;;;;;12.32;7.82;;;;;;;;;;4980495;28;20050;-80
2022/12/20 07:08:07;;;;;;;12.27;7.90;;;;;;;;;;4981435;28;20089;-80
2022/12/20 07:10:35;;;;;;;10.02;7.45;;;;;;;;;;4998696;28;20506;-79
2022/12/20 07:13:02;;;;;;;11.30;8.40;;;;;;;;;;4988254;28;20063;-79
2022/12/20 07:15:28;;;;;;;11.50;7.47;;;;;;;;;;4999626;28;20076;-78
2022/12/20 07:17:55;;;;;;;14.50;8.23;;;;;;;;;;4998883;28;20417;-79
2022/12/20 07:20:22;;;;;;;13.15;8.55;;;;;;;;;;5000083;28;20065;-78
2022/12/20 07:22:49;;;;;;;12.98;8.60;;;;;;;;;;4983591;28;20418;-78
2022/12/20 07:25:15;;;;;;;15.55;9.15;;;;;;;;;;4999079;28;20064;-80
2022/12/20 07:27:46;;;;;;;14.10;9.30;;;;;;;;;;5013712;28;20126;-78
2022/12/20 07:30:13;;;;;;;13.80;8.75;;;;;;;;;;4981615;28;20056;-78
2022/12/20 07:32:40;;;;;;;11.88;8.40;;;;;;;;;;4983132;28;20076;-78
2022/12/20 07:35:09;;;;;;;11.80;8.25;;;;;;;;;;4983690;28;20054;-78
2022/12/20 07:37:36;;;;;;;12.55;9.13;;;;;;;;;;4996831;28;20045;-78
2022/12/20 07:40:04;;;;;;;14.10;9.57;;;;;;;;;;5013249;28;20046;-78
2022/12/20 07:42:31;;;;;;;15.77;9.75;;;;;;;;;;4981421;28;20490;-78
2022/12/20 07:45:05;;;;;;;18.65;11.38;;;;;;;;;;4997459;28;20054;-78
2022/12/20 07:47:33;;;;;;;23.15;12.25;;;;;;;;;;5012973;28;20054;-79
2022/12/20 07:50:01;;;;;;;19.23;11.85;;;;;;;;;;4980754;28;20060;-78
2022/12/20 07:52:28;;;;;;;19.55;11.00;;;;;;;;;;4996430;28;20053;-80
2022/12/20 07:54:58;;;;;;;21.65;9.93;;;;;;;;;;5011858;28;20534;-79
2022/12/20 07:57:29;;;;;;;17.92;10.48;;;;;;;;;;5008658;28;20061;-79
2022/12/20 07:59:57;;;;;;;15.60;9.50;;;;;;;;;;5013511;28;20057;-76
2022/12/20 08:02:36;;;;;;;16.65;9.70;;;;;;;;;;4981346;28;20054;-79
2022/12/20 08:05:04;;;;;;;13.93;9.90;;;;;;;;;;4982201;28;20526;-79
2022/12/20 08:07:31;;;;;;;15.20;9.85;;;;;;;;;;5015183;28;20084;-81
2022/12/20 08:09:57;;;;;;;14.90;9.90;;;;;;;;;;4988749;28;20054;-75
2022/12/20 08:12:24;;;;;;;15.20;10.02;;;;;;;;;;4993656;28;20062;-81
2022/12/20 08:14:54;;;;;;;17.58;10.60;;;;;;;;;;4994354;28;20062;-79
2022/12/20 08:17:22;;;;;;;16.20;10.68;;;;;;;;;;4988745;28;20058;-79
2022/12/20 08:19:50;;;;;;;15.50;10.10;;;;;;;;;;4979022;28;20045;-79
2022/12/20 08:22:18;;;;;;;16.52;10.30;;;;;;;;;;4983072;28;20056;-79
2022/12/20 08:24:45;;;;;;;12.57;9.05;;;;;;;;;;4981984;28;20407;-79
2022/12/20 08:27:11;;;;;;;15.60;9.38;;;;;;;;;;4997383;28;20062;-77
2022/12/20 08:29:38;;;;;;;15.60;9.38;;;;;;;;;;4979696;28;20041;-79
2022/12/20 08:32:05;;;;;;;14.07;8.25;;;;;;;;;;4980429;28;20061;-84
2022/12/20 08:34:32;;;;;;;13.68;9.20;;;;;;;;;;4967979;28;20061;-77
2022/12/20 08:36:59;;;;;;;11.10;7.85;;;;;;;;;;4999147;28;20502;-77
2022/12/20 08:43:13;;;;;;;16.23;8.93;;;;;;;;;;4995506;28;20135;-78
2022/12/20 08:45:40;;;;;;;15.88;9.07;;;;;;;;;;4981126;28;20131;-79
2022/12/20 08:48:07;;;;;;;17.17;10.48;;;;;;;;;;4980500;28;20050;-78
2022/12/20 08:50:35;;;;;;;14.93;8.95;;;;;;;;;;4967594;28;20129;-77
2022/12/20 08:53:01;;;;;;;15.60;9.00;;;;;;;;;;5004488;28;20069;-78
2022/12/20 08:55:28;;;;;;;14.32;9.07;;;;;;;;;;4981111;28;20058;-77
2022/12/20 08:57:55;;;;;;;13.02;8.68;;;;;;;;;;5007707;28;20057;-77
2022/12/20 09:00:22;;;;;;;18.50;9.73;;;;;;;;;;5004612;28;20061;-77
2022/12/20 09:02:50;;;;;;;16.20;10.82;;;;;;;;;;4999709;28;20442;-77
2022/12/20 09:05:17;;;;;;;14.68;11.05;;;;;;;;;;4988991;28;20057;-77
2022/12/20 09:07:44;;;;;;;12.02;8.68;;;;;;;;;;4965918;28;20473;-77
2022/12/20 09:10:12;;;;;;;11.82;7.97;;;;;;;;;;4985970;28;20786;-78
2022/12/20 09:12:38;;;;;;;12.70;8.15;;;;;;;;;;4983799;28;20088;-78
2022/12/20 09:15:07;;;;;;;13.90;9.43;;;;;;;;;;4988500;28;20060;-79
2022/12/20 09:17:34;;;;;;;11.95;8.10;;;;;;;;;;4987795;28;20043;-78
2022/12/20 09:20:01;;;;;;;12.13;8.10;;;;;;;;;;4987500;28;20046;-76
2022/12/20 09:22:28;;;;;;;11.88;7.18;;;;;;;;;;5004275;28;20058;-79
2022/12/20 09:24:55;;;;;;;8.65;6.55;;;;;;;;;;4990527;28;20117;-79
2022/12/20 09:27:22;;;;;;;9.32;6.22;;;;;;;;;;4983204;28;20093;-78
2022/12/20 09:29:49;;;;;;;8.45;5.95;;;;;;;;;;4989947;28;20049;-79
2022/12/20 09:32:15;;;;;;;8.18;5.72;;;;;;;;;;4984247;28;20061;-79
2022/12/20 09:34:42;;;;;;;11.50;6.85;;;;;;;;;;5002861;28;20061;-79
2022/12/20 09:37:09;;;;;;;9.77;6.30;;;;;;;;;;4984846;28;20054;-79
2022/12/20 09:39:36;;;;;;;7.95;6.10;;;;;;;;;;4990878;28;20050;-78
2022/12/20 09:42:06;;;;;;;8.85;6.10;;;;;;;;;;4995929;28;20054;-79
2022/12/20 09:44:35;;;;;;;9.70;6.40;;;;;;;;;;4987651;28;20041;-79
2022/12/20 09:47:17;;;;;;;8.88;5.82;;;;;;;;;;5018533;28;20057;-78
2022/12/20 09:49:46;;;;;;;9.93;6.63;;;;;;;;;;5001752;28;20046;-78
2022/12/20 09:52:21;;;;;;;12.40;6.35;;;;;;;;;;4994671;28;20050;-78
2022/12/20 09:55:07;;;;;;;7.32;5.40;;;;;;;;;;5017032;28;20057;-78
2022/12/20 09:57:46;;;;;;;7.78;5.40;;;;;;;;;;5011947;28;20062;-79
2022/12/20 10:00:15;;;;;;;7.57;5.07;;;;;;;;;;4980298;28;20061;-79
2022/12/20 10:02:43;;;;;;;9.88;5.90;;;;;;;;;;5010191;28;20046;-79
2022/12/20 10:05:34;;;;;;;9.85;5.90;;;;;;;;;;5007434;28;20053;-78
2022/12/20 10:08:16;;;;;;;9.38;5.32;;;;;;;;;;5015597;28;20062;-78
2022/12/20 10:10:58;;;;;;;9.10;5.25;;;;;;;;;;5029034;28;20490;-78
2022/12/20 10:13:45;;;;;;;8.48;6.07;;;;;;;;;;4970558;28;20045;-78
2022/12/20 10:16:28;;;;;;;7.53;5.68;;;;;;;;;;5022946;28;20550;-78
2022/12/20 10:19:18;;;;;;;9.43;5.85;;;;;;;;;;5005242;28;20498;-78
2022/12/20 10:21:57;;;;;;;8.38;5.43;;;;;;;;;;5002280;28;20062;-79
2022/12/20 10:24:29;;;;;;;7.75;5.38;;;;;;;;;;5006199;28;20442;-76
2022/12/20 10:27:14;;;;;;;9.32;5.32;;;;;;;;;;5004369;28;20058;-78
2022/12/20 10:29:41;;;;;;;7.97;5.35;;;;;;;;;;4995938;28;20101;-78
2022/12/20 10:32:21;;;;;;;8.45;5.00;;;;;;;;;;5009770;28;20054;-78
2022/12/20 10:34:58;;;;;;;8.45;4.65;;;;;;;;;;4997434;28;20058;-77
2022/12/20 10:37:25;;;;;;;7.60;4.50;;;;;;;;;;5008779;28;20046;-78
2022/12/20 10:39:52;;;;;;;6.00;3.70;;;;;;;;;;5020464;28;20053;-79
2022/12/20 10:42:23;;;;;;;6.88;4.72;;;;;;;;;;4990476;28;20077;-78
2022/12/20 10:44:56;;;;;;;6.30;4.15;;;;;;;;;;5033701;28;20058;-79
2022/12/20 10:47:39;;;;;;;5.03;4.40;;;;;;;;;;5029446;28;20049;-78
2022/12/20 10:50:21;;;;;;;6.50;4.75;;;;;;;;;;5004113;28;20042;-77
2022/12/20 10:53:10;;;;;;;7.38;4.53;;;;;;;;;;5008424;28;20053;-77
2022/12/20 10:55:40;;;;;;;9.40;4.38;;;;;;;;;;5007591;28;20072;-77
2022/12/20 10:58:32;;;;;;;6.90;4.13;;;;;;;;;;5004194;28;20069;-77
2022/12/20 11:01:20;;;;;;;8.05;4.18;;;;;;;;;;5020164;28;20050;-77
2022/12/20 11:03:55;;;;;;;7.10;4.45;;;;;;;;;;4998772;28;20411;-77
2022/12/20 11:06:38;;;;;;;7.25;4.35;;;;;;;;;;4998670;28;20414;-78
2022/12/20 11:09:25;;;;;;;6.20;4.00;;;;;;;;;;4999336;28;20054;-78
2022/12/20 11:12:06;;;;;;;6.78;4.28;;;;;;;;;;4997937;28;20058;-78
2022/12/20 11:14:35;;;;;;;5.95;4.47;;;;;;;;;;4994989;28;20494;-77
2022/12/20 11:17:28;;;;;;;6.40;4.50;;;;;;;;;;4994385;28;20046;-78
2022/12/20 11:20:30;;;;;;;7.22;4.45;;;;;;;;;;4978766;28;20413;-78
2022/12/20 11:23:19;;;;;;;4.70;3.90;;;;;;;;;;4988502;28;20062;-77
2022/12/20 11:25:55;;;;;;;6.32;4.32;;;;;;;;;;5013301;28;20125;-78
2022/12/20 11:28:30;;;;;;;9.77;5.18;;;;;;;;;;5013323;28;20097;-77
2022/12/20 11:31:06;;;;;;;6.88;4.55;;;;;;;;;;5010347;28;20056;-76
2022/12/20 11:34:14;;;;;;;5.45;3.83;;;;;;;;;;5028651;28;20050;-76
2022/12/20 11:37:03;;;;;;;7.93;4.30;;;;;;;;;;4953991;29;20488;-78
2022/12/20 11:40:00;;;;;;;6.50;4.32;;;;;;;;;;4987136;28;20517;-77
2022/12/20 11:42:38;;;;;;;8.25;4.85;;;;;;;;;;4998509;28;20053;-77
2022/12/20 11:45:24;;;;;;;7.63;5.38;;;;;;;;;;5012739;28;20060;-78
2022/12/20 11:47:57;;;;;;;6.88;4.88;;;;;;;;;;5013629;28;20149;-78
2022/12/20 11:50:40;;;;;;;7.53;4.75;;;;;;;;;;5006303;28;20052;-77
2022/12/20 11:53:13;;;;;;;7.75;4.90;;;;;;;;;;4976026;28;20076;-77
2022/12/20 11:55:41;;;;;;;13.90;5.85;;;;;;;;;;4987064;28;20056;-77
2022/12/20 11:58:16;;;;;;;10.43;6.05;;;;;;;;;;4997510;28;20375;-77
2022/12/20 12:01:00;;;;;;;9.18;6.20;;;;;;;;;;5014966;28;20164;-78
2022/12/20 12:03:37;;;;;;;8.70;6.47;;;;;;;;;;5006111;28;20057;-78
2022/12/20 12:06:32;;;;;;;8.95;5.70;;;;;;;;;;5017846;28;20054;-77
2022/12/20 12:09:31;;;;;;;6.43;5.30;;;;;;;;;;4988074;28;20050;-77
2022/12/20 12:12:04;;;;;;;7.07;5.28;;;;;;;;;;5001701;28;20058;-77
2022/12/20 12:14:59;;;;;;;11.40;6.28;;;;;;;;;;4965990;28;20057;-78
2022/12/20 12:17:54;;;;;;;17.23;7.20;;;;;;;;;;5000286;28;20574;-77
2022/12/20 12:20:39;;;;;;;9.38;6.45;;;;;;;;;;4983731;28;20170;-77
2022/12/20 12:23:15;;;;;;;11.68;6.65;;;;;;;;;;5001835;28;20402;-78
2022/12/20 12:25:42;;;;;;;10.27;6.85;;;;;;;;;;4966479;28;20057;-78
2022/12/20 12:28:12;;;;;;;10.35;6.82;;;;;;;;;;4996248;28;20054;-78
2022/12/20 12:30:45;;;;;;;8.35;6.60;;;;;;;;;;4986321;28;20050;-78
2022/12/20 12:33:15;;;;;;;13.40;7.70;;;;;;;;;;5014809;28;20066;-76
2022/12/20 12:36:08;;;;;;;14.20;7.97;;;;;;;;;;5000343;28;20076;-79
2022/12/20 12:38:44;;;;;;;14.52;8.65;;;;;;;;;;5006776;28;20046;-79
2022/12/20 12:41:20;;;;;;;14.60;7.72;;;;;;;;;;5018751;28;20046;-79
2022/12/20 12:43:52;;;;;;;14.13;7.78;;;;;;;;;;4998238;28;20065;-81
2022/12/20 12:46:26;;;;;;;10.67;6.43;;;;;;;;;;4989401;28;20057;-81
2022/12/20 12:48:59;;;;;;;10.82;6.18;;;;;;;;;;4966890;28;20517;-80
2022/12/20 12:51:50;;;;;;;7.38;5.30;;;;;;;;;;5003327;28;20110;-77
2022/12/20 12:54:18;;;;;;;7.93;5.90;;;;;;;;;;4987751;28;20058;-77
2022/12/20 12:56:49;;;;;;;10.57;6.88;;;;;;;;;;4985191;28;20057;-77
2022/12/20 12:59:31;;;;;;;10.68;6.55;;;;;;;;;;4980467;28;20054;-77
2022/12/20 13:02:02;;;;;;;11.88;6.93;;;;;;;;;;4999029;28;20054;-77
2022/12/20 13:04:48;;;;;;;13.15;7.45;;;;;;;;;;5008617;28;20124;-78
2022/12/20 13:07:31;;;;;;;10.07;6.85;;;;;;;;;;5016836;28;20129;-77
2022/12/20 13:09:59;;;;;;;9.07;6.47;;;;;;;;;;5012684;28;20046;-79
2022/12/20 13:12:37;;;;;;;9.55;7.03;;;;;;;;;;4966015;28;20045;-80
2022/12/20 13:15:19;;;;;;;12.80;7.10;;;;;;;;;;5017520;28;20050;-79
2022/12/20 13:17:53;;;;;;;9.35;6.18;;;;;;;;;;5015142;28;20065;-80
2022/12/20 13:20:28;;;;;;;9.07;5.72;;;;;;;;;;4985764;28;20050;-79
2022/12/20 13:23:07;;;;;;;10.82;5.00;;;;;;;;;;4969271;28;20053;-78
2022/12/20 13:25:39;;;;;;;9.20;4.70;;;;;;;;;;5017398;28;20061;-76
2022/12/20 13:28:17;;;;;;;10.98;5.53;;;;;;;;;;4993622;28;20062;-76
2022/12/20 13:30:45;;;;;;;11.95;5.97;;;;;;;;;;5000619;28;20129;-77
2022/12/20 13:33:20;;;;;;;9.13;5.90;;;;;;;;;;4996132;28;20510;-76
2022/12/20 13:35:54;;;;;;;8.43;5.70;;;;;;;;;;4998343;28;20058;-76
2022/12/20 13:38:47;;;;;;;9.57;6.13;;;;;;;;;;4989974;28;20050;-75
2022/12/20 13:41:17;;;;;;;10.98;6.35;;;;;;;;;;4997049;28;20042;-77
2022/12/20 13:43:44;;;;;;;6.95;5.90;;;;;;;;;;5013754;28;20050;-76
2022/12/20 13:46:17;;;;;;;9.88;6.15;;;;;;;;;;4996707;28;20050;-76
2022/12/20 13:49:02;;;;;;;8.43;5.95;;;;;;;;;;4982752;28;20050;-77
2022/12/20 13:51:29;;;;;;;16.60;7.45;;;;;;;;;;4979836;28;20607;-77
2022/12/20 13:53:57;;;;;;;12.77;6.72;;;;;;;;;;4987133;28;20054;-76
2022/12/20 13:56:31;;;;;;;11.00;6.07;;;;;;;;;;4984395;28;20470;-77
2022/12/20 13:59:11;;;;;;;8.68;5.30;;;;;;;;;;5003911;28;20064;-77
2022/12/20 14:01:49;;;;;;;7.65;5.15;;;;;;;;;;5001158;28;20053;-77
2022/12/20 14:04:17;;;;;;;8.57;5.60;;;;;;;;;;4987064;28;20062;-76
2022/12/20 14:06:53;;;;;;;8.93;5.97;;;;;;;;;;4970874;28;20129;-77
2022/12/20 14:09:36;;;;;;;9.48;6.40;;;;;;;;;;5004197;28;20510;-77
2022/12/20 14:12:15;;;;;;;8.50;5.97;;;;;;;;;;4984477;28;20049;-77
2022/12/20 14:14:53;;;;;;;9.18;6.45;;;;;;;;;;4988465;28;20058;-77
2022/12/20 14:17:27;;;;;;;9.65;6.25;;;;;;;;;;4970230;28;20055;-77
2022/12/20 14:20:28;;;;;;;13.57;8.55;;;;;;;;;;4990743;28;20113;-77
2022/12/20 14:23:14;;;;;;;15.27;11.00;;;;;;;;;;5006466;28;20064;-77
2022/12/20 14:25:46;;;;;;;12.98;9.45;;;;;;;;;;4989786;28;20068;-76
2022/12/20 14:28:43;;;;;;;17.67;11.98;;;;;;;;;;5006817;28;20069;-76
2022/12/20 14:31:29;;;;;;;14.50;10.90;;;;;;;;;;5004246;28;20055;-76
2022/12/20 14:34:03;;;;;;;14.80;10.57;;;;;;;;;;5018713;28;20078;-76
2022/12/20 14:36:30;;;;;;;13.07;8.77;;;;;;;;;;5016529;28;20057;-76
2022/12/20 14:38:57;;;;;;;14.65;7.20;;;;;;;;;;4991871;28;20057;-76
2022/12/20 14:41:29;;;;;;;12.20;6.90;;;;;;;;;;4969060;28;20473;-76
2022/12/20 14:43:57;;;;;;;8.68;6.30;;;;;;;;;;4987472;28;20054;-76
2022/12/20 14:46:24;;;;;;;8.60;6.80;;;;;;;;;;4983595;28;20050;-77
2022/12/20 14:49:21;;;;;;;9.80;6.20;;;;;;;;;;5003566;28;20054;-77
2022/12/20 14:51:49;;;;;;;8.48;6.38;;;;;;;;;;5002935;28;20074;-81
2022/12/20 14:54:21;;;;;;;9.50;6.47;;;;;;;;;;5002318;28;20058;-77
2022/12/20 14:57:30;;;;;;;11.45;6.50;;;;;;;;;;4997210;28;20062;-74
2022/12/20 15:00:09;;;;;;;11.98;6.88;;;;;;;;;;4998836;28;20062;-76
2022/12/20 15:02:48;;;;;;;10.38;6.15;;;;;;;;;;5002098;28;20069;-76
2022/12/20 15:05:34;;;;;;;9.38;6.28;;;;;;;;;;4971715;28;20046;-78
2022/12/20 15:08:19;;;;;;;12.13;6.47;;;;;;;;;;5019387;28;20080;-78
2022/12/20 15:10:56;;;;;;;8.57;7.43;;;;;;;;;;4986202;28;20065;-77
2022/12/20 15:13:57;;;;;;;15.02;6.72;;;;;;;;;;5006467;28;20047;-77
2022/12/20 15:16:26;;;;;;;11.68;7.13;;;;;;;;;;4996406;28;20054;-78
2022/12/20 15:18:57;;;;;;;12.30;8.48;;;;;;;;;;4995728;28;20599;-78
2022/12/20 15:21:42;;;;;;;13.45;8.40;;;;;;;;;;5016125;28;20051;-78